Kelleys Island, Ohio
Current Conditions -  °F | °C
As of 12:33 PM on Tuesday 21 Oct 2014 (Local Time) from KPCW Reporting Station
Overcast Overcast  
Wind Chill: 42°   Ceiling: 2600
Heat Index: 48°   Visibility: 10mi
Dew Point: 41°   Wind: 17mph
Humidity: 76%   Direction: 10°N
Pressure: 30"   Gusts: NA
Location:  41.6°N, 82.71°W
Report Text: KPCW 211633Z AUTO 01015KT 10SM BKN026 OVC032 09/05 A3000 RMK AO2 $
Loading
Personal Weather Stations






























Interactive Weather Map New forecast layout! Learn more

10-Day Weather Forecast

Advertisements
Track Severe Weather on mobile